sensor_id;sensor_type;location;lat;lon;timestamp;P1;durP1;ratioP1;P2;durP2;ratioP2
46322;SDS011;32044;52.386;13.278;2022-10-23T00:02:10;12.77;;;10.07;;
46322;SDS011;32044;52.386;13.278;2022-10-23T00:04:35;15.40;;;9.32;;
46322;SDS011;32044;52.386;13.278;2022-10-23T00:07:01;15.48;;;10.13;;
46322;SDS011;32044;52.386;13.278;2022-10-23T00:09:26;14.45;;;9.85;;
46322;SDS011;32044;52.386;13.278;2022-10-23T00:11:51;18.50;;;11.38;;
46322;SDS011;32044;52.386;13.278;2022-10-23T00:14:18;17.70;;;11.07;;
46322;SDS011;32044;52.386;13.278;2022-10-23T00:16:45;18.23;;;11.05;;
46322;SDS011;32044;52.386;13.278;2022-10-23T00:19:10;15.80;;;11.68;;
46322;SDS011;32044;52.386;13.278;2022-10-23T00:21:36;16.13;;;11.95;;
46322;SDS011;32044;52.386;13.278;2022-10-23T00:24:01;16.48;;;11.13;;
46322;SDS011;32044;52.386;13.278;2022-10-23T00:26:26;18.13;;;11.63;;
46322;SDS011;32044;52.386;13.278;2022-10-23T00:28:52;21.13;;;11.57;;
46322;SDS011;32044;52.386;13.278;2022-10-23T00:31:18;16.90;;;12.18;;
46322;SDS011;32044;52.386;13.278;2022-10-23T00:33:44;16.65;;;11.57;;
46322;SDS011;32044;52.386;13.278;2022-10-23T00:36:10;19.92;;;11.65;;
46322;SDS011;32044;52.386;13.278;2022-10-23T00:38:37;18.92;;;11.30;;
46322;SDS011;32044;52.386;13.278;2022-10-23T00:41:03;16.85;;;10.38;;
46322;SDS011;32044;52.386;13.278;2022-10-23T00:43:29;21.23;;;10.80;;
46322;SDS011;32044;52.386;13.278;2022-10-23T00:45:56;13.68;;;10.23;;
46322;SDS011;32044;52.386;13.278;2022-10-23T00:48:21;18.73;;;10.57;;
46322;SDS011;32044;52.386;13.278;2022-10-23T00:50:47;12.60;;;9.50;;
46322;SDS011;32044;52.386;13.278;2022-10-23T00:53:13;11.50;;;9.52;;
46322;SDS011;32044;52.386;13.278;2022-10-23T00:55:38;16.77;;;10.05;;
46322;SDS011;32044;52.386;13.278;2022-10-23T00:58:09;14.10;;;9.38;;
46322;SDS011;32044;52.386;13.278;2022-10-23T01:03:18;17.80;;;10.60;;
46322;SDS011;32044;52.386;13.278;2022-10-23T01:06:02;17.42;;;10.18;;
46322;SDS011;32044;52.386;13.278;2022-10-23T01:08:34;14.00;;;9.00;;
46322;SDS011;32044;52.386;13.278;2022-10-23T01:14:02;13.35;;;9.50;;
46322;SDS011;32044;52.386;13.278;2022-10-23T01:19:10;17.27;;;9.73;;
46322;SDS011;32044;52.386;13.278;2022-10-23T01:21:48;13.10;;;9.38;;
46322;SDS011;32044;52.386;13.278;2022-10-23T01:24:41;17.42;;;10.07;;
46322;SDS011;32044;52.386;13.278;2022-10-23T01:27:21;17.92;;;9.30;;
46322;SDS011;32044;52.386;13.278;2022-10-23T01:30:10;16.80;;;9.77;;
46322;SDS011;32044;52.386;13.278;2022-10-23T01:32:48;15.93;;;9.20;;
46322;SDS011;32044;52.386;13.278;2022-10-23T01:35:20;13.23;;;9.10;;
46322;SDS011;32044;52.386;13.278;2022-10-23T01:37:50;14.95;;;9.48;;
46322;SDS011;32044;52.386;13.278;2022-10-23T01:40:23;13.48;;;9.10;;
46322;SDS011;32044;52.386;13.278;2022-10-23T01:42:53;12.98;;;9.05;;
46322;SDS011;32044;52.386;13.278;2022-10-23T01:45:22;15.27;;;9.30;;
46322;SDS011;32044;52.386;13.278;2022-10-23T01:47:52;12.98;;;8.95;;
46322;SDS011;32044;52.386;13.278;2022-10-23T01:50:19;13.55;;;8.90;;
46322;SDS011;32044;52.386;13.278;2022-10-23T01:52:45;19.50;;;9.10;;
46322;SDS011;32044;52.386;13.278;2022-10-23T01:55:10;14.45;;;8.20;;
46322;SDS011;32044;52.386;13.278;2022-10-23T01:57:36;13.43;;;8.45;;
46322;SDS011;32044;52.386;13.278;2022-10-23T02:00:05;12.73;;;8.90;;
46322;SDS011;32044;52.386;13.278;2022-10-23T02:02:32;14.13;;;8.82;;
46322;SDS011;32044;52.386;13.278;2022-10-23T02:05:02;15.20;;;9.15;;
46322;SDS011;32044;52.386;13.278;2022-10-23T02:07:32;11.65;;;8.50;;
46322;SDS011;32044;52.386;13.278;2022-10-23T02:09:58;14.77;;;8.77;;
46322;SDS011;32044;52.386;13.278;2022-10-23T02:12:29;9.98;;;7.45;;
46322;SDS011;32044;52.386;13.278;2022-10-23T02:15:02;12.60;;;7.55;;
46322;SDS011;32044;52.386;13.278;2022-10-23T02:20:44;10.13;;;7.80;;
46322;SDS011;32044;52.386;13.278;2022-10-23T02:23:14;14.65;;;8.57;;
46322;SDS011;32044;52.386;13.278;2022-10-23T02:25:52;12.65;;;8.98;;
46322;SDS011;32044;52.386;13.278;2022-10-23T02:28:21;15.07;;;8.85;;
46322;SDS011;32044;52.386;13.278;2022-10-23T02:30:49;12.52;;;8.65;;
46322;SDS011;32044;52.386;13.278;2022-10-23T02:33:14;13.68;;;8.40;;
46322;SDS011;32044;52.386;13.278;2022-10-23T02:35:40;12.85;;;7.82;;
46322;SDS011;32044;52.386;13.278;2022-10-23T02:40:50;10.27;;;7.82;;
46322;SDS011;32044;52.386;13.278;2022-10-23T02:43:19;23.67;;;8.43;;
46322;SDS011;32044;52.386;13.278;2022-10-23T02:45:57;10.75;;;8.13;;
46322;SDS011;32044;52.386;13.278;2022-10-23T02:48:29;15.48;;;8.68;;
46322;SDS011;32044;52.386;13.278;2022-10-23T02:51:02;8.48;;;7.45;;
46322;SDS011;32044;52.386;13.278;2022-10-23T02:53:35;15.75;;;8.50;;
46322;SDS011;32044;52.386;13.278;2022-10-23T02:56:07;11.73;;;8.15;;
46322;SDS011;32044;52.386;13.278;2022-10-23T02:58:42;11.48;;;7.80;;
46322;SDS011;32044;52.386;13.278;2022-10-23T03:01:10;8.95;;;6.70;;
46322;SDS011;32044;52.386;13.278;2022-10-23T03:03:39;10.32;;;7.95;;
46322;SDS011;32044;52.386;13.278;2022-10-23T03:06:06;15.52;;;8.15;;
46322;SDS011;32044;52.386;13.278;2022-10-23T03:08:42;14.63;;;8.18;;
46322;SDS011;32044;52.386;13.278;2022-10-23T03:11:09;13.57;;;8.77;;
46322;SDS011;32044;52.386;13.278;2022-10-23T03:13:34;13.43;;;9.52;;
46322;SDS011;32044;52.386;13.278;2022-10-23T03:15:59;14.35;;;9.00;;
46322;SDS011;32044;52.386;13.278;2022-10-23T03:18:24;16.58;;;9.70;;
46322;SDS011;32044;52.386;13.278;2022-10-23T03:20:50;10.43;;;7.93;;
46322;SDS011;32044;52.386;13.278;2022-10-23T03:23:15;10.60;;;7.05;;
46322;SDS011;32044;52.386;13.278;2022-10-23T03:25:40;11.10;;;8.05;;
46322;SDS011;32044;52.386;13.278;2022-10-23T03:28:05;13.18;;;7.97;;
46322;SDS011;32044;52.386;13.278;2022-10-23T03:30:31;15.77;;;8.73;;
46322;SDS011;32044;52.386;13.278;2022-10-23T03:32:56;13.60;;;9.27;;
46322;SDS011;32044;52.386;13.278;2022-10-23T03:35:21;16.85;;;9.57;;
46322;SDS011;32044;52.386;13.278;2022-10-23T03:37:47;15.13;;;8.68;;
46322;SDS011;32044;52.386;13.278;2022-10-23T03:40:12;12.85;;;9.02;;
46322;SDS011;32044;52.386;13.278;2022-10-23T03:42:37;13.50;;;8.07;;
46322;SDS011;32044;52.386;13.278;2022-10-23T03:45:03;17.58;;;8.43;;
46322;SDS011;32044;52.386;13.278;2022-10-23T03:47:28;16.27;;;9.20;;
46322;SDS011;32044;52.386;13.278;2022-10-23T03:49:54;12.30;;;9.18;;
46322;SDS011;32044;52.386;13.278;2022-10-23T03:52:19;10.98;;;7.22;;
46322;SDS011;32044;52.386;13.278;2022-10-23T03:54:45;11.57;;;7.82;;
46322;SDS011;32044;52.386;13.278;2022-10-23T03:57:10;10.82;;;7.47;;
46322;SDS011;32044;52.386;13.278;2022-10-23T03:59:35;10.45;;;7.28;;
46322;SDS011;32044;52.386;13.278;2022-10-23T04:02:01;14.30;;;8.45;;
46322;SDS011;32044;52.386;13.278;2022-10-23T04:04:26;15.00;;;8.48;;
46322;SDS011;32044;52.386;13.278;2022-10-23T04:06:51;11.80;;;8.05;;
46322;SDS011;32044;52.386;13.278;2022-10-23T04:09:17;11.88;;;8.70;;
46322;SDS011;32044;52.386;13.278;2022-10-23T04:11:42;12.50;;;8.90;;
46322;SDS011;32044;52.386;13.278;2022-10-23T04:14:09;12.52;;;9.40;;
46322;SDS011;32044;52.386;13.278;2022-10-23T04:16:35;14.45;;;8.65;;
46322;SDS011;32044;52.386;13.278;2022-10-23T04:19:01;13.45;;;7.82;;
46322;SDS011;32044;52.386;13.278;2022-10-23T04:21:26;14.43;;;7.88;;
46322;SDS011;32044;52.386;13.278;2022-10-23T04:23:51;10.90;;;7.75;;
46322;SDS011;32044;52.386;13.278;2022-10-23T04:26:16;16.48;;;9.70;;
46322;SDS011;32044;52.386;13.278;2022-10-23T04:28:42;15.88;;;9.48;;
46322;SDS011;32044;52.386;13.278;2022-10-23T04:31:07;13.32;;;8.93;;
46322;SDS011;32044;52.386;13.278;2022-10-23T04:33:32;12.55;;;7.78;;
46322;SDS011;32044;52.386;13.278;2022-10-23T04:35:58;8.07;;;6.82;;
46322;SDS011;32044;52.386;13.278;2022-10-23T04:38:23;8.18;;;6.32;;
46322;SDS011;32044;52.386;13.278;2022-10-23T04:40:50;12.13;;;7.88;;
46322;SDS011;32044;52.386;13.278;2022-10-23T04:43:15;11.43;;;7.00;;
46322;SDS011;32044;52.386;13.278;2022-10-23T04:45:40;9.35;;;6.90;;
46322;SDS011;32044;52.386;13.278;2022-10-23T04:48:05;6.78;;;5.93;;
46322;SDS011;32044;52.386;13.278;2022-10-23T04:50:31;8.23;;;6.32;;
46322;SDS011;32044;52.386;13.278;2022-10-23T04:52:56;8.38;;;6.13;;
46322;SDS011;32044;52.386;13.278;2022-10-23T04:55:22;8.63;;;6.00;;
46322;SDS011;32044;52.386;13.278;2022-10-23T04:57:49;8.23;;;5.72;;
46322;SDS011;32044;52.386;13.278;2022-10-23T05:00:15;6.70;;;5.55;;
46322;SDS011;32044;52.386;13.278;2022-10-23T05:02:40;6.07;;;5.10;;
46322;SDS011;32044;52.386;13.278;2022-10-23T05:05:06;6.95;;;5.93;;
46322;SDS011;32044;52.386;13.278;2022-10-23T05:07:32;8.63;;;6.15;;
46322;SDS011;32044;52.386;13.278;2022-10-23T05:09:58;9.75;;;6.75;;
46322;SDS011;32044;52.386;13.278;2022-10-23T05:12:23;11.93;;;7.20;;
46322;SDS011;32044;52.386;13.278;2022-10-23T05:14:50;11.98;;;8.18;;
46322;SDS011;32044;52.386;13.278;2022-10-23T05:17:16;11.40;;;8.05;;
46322;SDS011;32044;52.386;13.278;2022-10-23T05:19:47;9.05;;;6.88;;
46322;SDS011;32044;52.386;13.278;2022-10-23T05:22:14;7.15;;;5.80;;
46322;SDS011;32044;52.386;13.278;2022-10-23T05:24:40;6.15;;;5.40;;
46322;SDS011;32044;52.386;13.278;2022-10-23T05:27:06;7.00;;;5.10;;
46322;SDS011;32044;52.386;13.278;2022-10-23T05:29:31;6.50;;;5.65;;
46322;SDS011;32044;52.386;13.278;2022-10-23T05:31:58;7.53;;;6.55;;
46322;SDS011;32044;52.386;13.278;2022-10-23T05:34:26;10.57;;;7.63;;
46322;SDS011;32044;52.386;13.278;2022-10-23T05:36:52;13.68;;;7.38;;
46322;SDS011;32044;52.386;13.278;2022-10-23T05:39:17;8.32;;;6.25;;
46322;SDS011;32044;52.386;13.278;2022-10-23T05:41:43;5.90;;;5.10;;
46322;SDS011;32044;52.386;13.278;2022-10-23T05:44:08;6.78;;;5.18;;
46322;SDS011;32044;52.386;13.278;2022-10-23T05:46:33;8.05;;;4.78;;
46322;SDS011;32044;52.386;13.278;2022-10-23T05:48:59;6.78;;;5.57;;
46322;SDS011;32044;52.386;13.278;2022-10-23T05:51:24;8.68;;;5.72;;
46322;SDS011;32044;52.386;13.278;2022-10-23T05:53:50;8.20;;;6.82;;
46322;SDS011;32044;52.386;13.278;2022-10-23T05:56:16;8.73;;;7.00;;
46322;SDS011;32044;52.386;13.278;2022-10-23T05:58:42;10.35;;;8.00;;
46322;SDS011;32044;52.386;13.278;2022-10-23T06:01:08;11.02;;;7.82;;
46322;SDS011;32044;52.386;13.278;2022-10-23T06:03:35;12.38;;;7.25;;
46322;SDS011;32044;52.386;13.278;2022-10-23T06:06:01;9.98;;;6.65;;
46322;SDS011;32044;52.386;13.278;2022-10-23T06:08:26;9.70;;;7.25;;
46322;SDS011;32044;52.386;13.278;2022-10-23T06:10:51;13.25;;;7.68;;
46322;SDS011;32044;52.386;13.278;2022-10-23T06:13:17;10.55;;;7.15;;
46322;SDS011;32044;52.386;13.278;2022-10-23T06:15:42;14.55;;;8.18;;
46322;SDS011;32044;52.386;13.278;2022-10-23T06:18:08;12.07;;;8.75;;
46322;SDS011;32044;52.386;13.278;2022-10-23T06:20:36;14.40;;;9.45;;
46322;SDS011;32044;52.386;13.278;2022-10-23T06:23:02;19.42;;;11.65;;
46322;SDS011;32044;52.386;13.278;2022-10-23T06:25:31;17.05;;;10.68;;
46322;SDS011;32044;52.386;13.278;2022-10-23T06:27:56;15.63;;;10.05;;
46322;SDS011;32044;52.386;13.278;2022-10-23T06:30:22;14.45;;;9.68;;
46322;SDS011;32044;52.386;13.278;2022-10-23T06:32:47;13.02;;;9.57;;
46322;SDS011;32044;52.386;13.278;2022-10-23T06:35:12;10.38;;;9.07;;
46322;SDS011;32044;52.386;13.278;2022-10-23T06:37:37;13.63;;;8.73;;
46322;SDS011;32044;52.386;13.278;2022-10-23T06:40:03;8.32;;;7.20;;
46322;SDS011;32044;52.386;13.278;2022-10-23T06:42:29;15.10;;;7.10;;
46322;SDS011;32044;52.386;13.278;2022-10-23T06:44:55;9.55;;;7.88;;
46322;SDS011;32044;52.386;13.278;2022-10-23T06:47:20;13.30;;;7.18;;
46322;SDS011;32044;52.386;13.278;2022-10-23T06:49:46;13.52;;;8.43;;
46322;SDS011;32044;52.386;13.278;2022-10-23T06:52:11;12.68;;;8.63;;
46322;SDS011;32044;52.386;13.278;2022-10-23T06:54:36;12.65;;;9.38;;
46322;SDS011;32044;52.386;13.278;2022-10-23T06:57:02;16.42;;;10.18;;
46322;SDS011;32044;52.386;13.278;2022-10-23T06:59:27;14.80;;;9.18;;
46322;SDS011;32044;52.386;13.278;2022-10-23T07:01:52;15.25;;;10.93;;
46322;SDS011;32044;52.386;13.278;2022-10-23T07:04:17;14.65;;;10.30;;
46322;SDS011;32044;52.386;13.278;2022-10-23T07:06:43;18.50;;;10.38;;
46322;SDS011;32044;52.386;13.278;2022-10-23T07:09:08;14.05;;;10.07;;
46322;SDS011;32044;52.386;13.278;2022-10-23T07:11:33;13.43;;;9.52;;
46322;SDS011;32044;52.386;13.278;2022-10-23T07:13:59;10.88;;;8.95;;
46322;SDS011;32044;52.386;13.278;2022-10-23T07:16:24;12.25;;;8.55;;
46322;SDS011;32044;52.386;13.278;2022-10-23T07:18:54;12.05;;;8.75;;
46322;SDS011;32044;52.386;13.278;2022-10-23T07:21:23;11.27;;;8.93;;
46322;SDS011;32044;52.386;13.278;2022-10-23T07:23:49;12.50;;;8.55;;
46322;SDS011;32044;52.386;13.278;2022-10-23T07:26:14;9.70;;;7.53;;
46322;SDS011;32044;52.386;13.278;2022-10-23T07:28:41;12.48;;;7.78;;
46322;SDS011;32044;52.386;13.278;2022-10-23T07:31:08;11.05;;;7.75;;
46322;SDS011;32044;52.386;13.278;2022-10-23T07:33:34;11.07;;;7.53;;
46322;SDS011;32044;52.386;13.278;2022-10-23T07:35:59;10.80;;;8.10;;
46322;SDS011;32044;52.386;13.278;2022-10-23T07:38:25;11.55;;;8.00;;
46322;SDS011;32044;52.386;13.278;2022-10-23T07:40:51;10.55;;;8.20;;
46322;SDS011;32044;52.386;13.278;2022-10-23T07:43:17;13.40;;;7.90;;
46322;SDS011;32044;52.386;13.278;2022-10-23T07:45:48;9.75;;;7.28;;
46322;SDS011;32044;52.386;13.278;2022-10-23T07:48:13;10.68;;;7.60;;
46322;SDS011;32044;52.386;13.278;2022-10-23T07:50:39;11.25;;;7.40;;
46322;SDS011;32044;52.386;13.278;2022-10-23T07:53:04;11.90;;;7.35;;
46322;SDS011;32044;52.386;13.278;2022-10-23T07:55:30;11.95;;;7.18;;
46322;SDS011;32044;52.386;13.278;2022-10-23T07:57:55;12.77;;;7.32;;
46322;SDS011;32044;52.386;13.278;2022-10-23T08:00:20;13.55;;;7.18;;
46322;SDS011;32044;52.386;13.278;2022-10-23T08:02:45;12.27;;;7.40;;
46322;SDS011;32044;52.386;13.278;2022-10-23T08:05:11;11.20;;;7.10;;
46322;SDS011;32044;52.386;13.278;2022-10-23T08:07:36;12.40;;;7.20;;
46322;SDS011;32044;52.386;13.278;2022-10-23T08:10:01;11.48;;;7.00;;
46322;SDS011;32044;52.386;13.278;2022-10-23T08:12:27;12.48;;;7.03;;
46322;SDS011;32044;52.386;13.278;2022-10-23T08:14:52;7.50;;;6.05;;
46322;SDS011;32044;52.386;13.278;2022-10-23T08:17:18;11.95;;;6.70;;
46322;SDS011;32044;52.386;13.278;2022-10-23T08:19:43;9.93;;;6.65;;
46322;SDS011;32044;52.386;13.278;2022-10-23T08:22:10;10.45;;;5.72;;
46322;SDS011;32044;52.386;13.278;2022-10-23T08:24:36;8.73;;;5.53;;
46322;SDS011;32044;52.386;13.278;2022-10-23T08:27:01;8.93;;;6.07;;
46322;SDS011;32044;52.386;13.278;2022-10-23T08:29:27;12.85;;;5.80;;
46322;SDS011;32044;52.386;13.278;2022-10-23T08:31:52;7.72;;;5.68;;
46322;SDS011;32044;52.386;13.278;2022-10-23T08:34:19;11.45;;;5.20;;
46322;SDS011;32044;52.386;13.278;2022-10-23T08:36:45;12.50;;;5.55;;
46322;SDS011;32044;52.386;13.278;2022-10-23T08:39:10;12.85;;;6.03;;
46322;SDS011;32044;52.386;13.278;2022-10-23T08:42:14;10.27;;;5.28;;
46322;SDS011;32044;52.386;13.278;2022-10-23T08:44:42;10.10;;;5.18;;
46322;SDS011;32044;52.386;13.278;2022-10-23T08:47:14;11.38;;;5.05;;
46322;SDS011;32044;52.386;13.278;2022-10-23T08:49:46;8.13;;;4.57;;
46322;SDS011;32044;52.386;13.278;2022-10-23T08:52:17;10.88;;;4.97;;
46322;SDS011;32044;52.386;13.278;2022-10-23T08:54:52;11.23;;;5.03;;
46322;SDS011;32044;52.386;13.278;2022-10-23T08:57:22;9.95;;;4.80;;
46322;SDS011;32044;52.386;13.278;2022-10-23T08:59:52;9.73;;;4.38;;
46322;SDS011;32044;52.386;13.278;2022-10-23T09:02:23;8.45;;;4.10;;
46322;SDS011;32044;52.386;13.278;2022-10-23T09:04:51;8.95;;;4.80;;
46322;SDS011;32044;52.386;13.278;2022-10-23T09:07:20;10.32;;;4.72;;
46322;SDS011;32044;52.386;13.278;2022-10-23T09:10:15;8.02;;;4.78;;
46322;SDS011;32044;52.386;13.278;2022-10-23T09:13:59;9.50;;;4.78;;
46322;SDS011;32044;52.386;13.278;2022-10-23T09:16:03;8.45;;;5.28;;
46322;SDS011;32044;52.386;13.278;2022-10-23T09:18:44;10.95;;;5.68;;
46322;SDS011;32044;52.386;13.278;2022-10-23T09:21:11;13.63;;;6.55;;
46322;SDS011;32044;52.386;13.278;2022-10-23T09:23:36;10.75;;;5.35;;
46322;SDS011;32044;52.386;13.278;2022-10-23T09:26:03;7.70;;;4.40;;
46322;SDS011;32044;52.386;13.278;2022-10-23T09:28:35;7.18;;;4.82;;
46322;SDS011;32044;52.386;13.278;2022-10-23T09:31:08;8.60;;;4.50;;
46322;SDS011;32044;52.386;13.278;2022-10-23T09:33:35;14.55;;;4.88;;
46322;SDS011;32044;52.386;13.278;2022-10-23T09:36:03;12.57;;;4.70;;
46322;SDS011;32044;52.386;13.278;2022-10-23T09:38:52;10.32;;;4.40;;
46322;SDS011;32044;52.386;13.278;2022-10-23T09:41:19;11.70;;;3.58;;
46322;SDS011;32044;52.386;13.278;2022-10-23T09:46:36;9.70;;;3.60;;
46322;SDS011;32044;52.386;13.278;2022-10-23T09:49:14;5.40;;;3.10;;
46322;SDS011;32044;52.386;13.278;2022-10-23T09:51:51;8.07;;;2.80;;
46322;SDS011;32044;52.386;13.278;2022-10-23T09:54:17;6.38;;;3.15;;
46322;SDS011;32044;52.386;13.278;2022-10-23T09:56:45;8.93;;;3.15;;
46322;SDS011;32044;52.386;13.278;2022-10-23T10:01:44;7.00;;;3.20;;
46322;SDS011;32044;52.386;13.278;2022-10-23T10:04:14;11.95;;;2.88;;
46322;SDS011;32044;52.386;13.278;2022-10-23T10:06:39;6.32;;;2.72;;
46322;SDS011;32044;52.386;13.278;2022-10-23T10:09:07;7.13;;;2.90;;
46322;SDS011;32044;52.386;13.278;2022-10-23T10:11:45;6.15;;;2.50;;
46322;SDS011;32044;52.386;13.278;2022-10-23T10:14:38;5.38;;;2.55;;
46322;SDS011;32044;52.386;13.278;2022-10-23T10:17:14;6.20;;;2.72;;
46322;SDS011;32044;52.386;13.278;2022-10-23T10:19:57;5.10;;;2.60;;
46322;SDS011;32044;52.386;13.278;2022-10-23T10:22:32;4.22;;;2.50;;
46322;SDS011;32044;52.386;13.278;2022-10-23T10:25:06;8.40;;;2.45;;
46322;SDS011;32044;52.386;13.278;2022-10-23T10:30:32;6.38;;;2.30;;
46322;SDS011;32044;52.386;13.278;2022-10-23T10:33:17;6.45;;;2.17;;
46322;SDS011;32044;52.386;13.278;2022-10-23T10:38:47;5.40;;;2.28;;
46322;SDS011;32044;52.386;13.278;2022-10-23T10:41:19;10.70;;;2.53;;
46322;SDS011;32044;52.386;13.278;2022-10-23T10:46:35;4.38;;;1.95;;
46322;SDS011;32044;52.386;13.278;2022-10-23T10:49:06;7.23;;;2.00;;
46322;SDS011;32044;52.386;13.278;2022-10-23T10:51:46;4.80;;;1.85;;
46322;SDS011;32044;52.386;13.278;2022-10-23T10:57:38;7.55;;;1.98;;
46322;SDS011;32044;52.386;13.278;2022-10-23T11:00:13;7.80;;;2.25;;
46322;SDS011;32044;52.386;13.278;2022-10-23T11:02:44;5.60;;;2.05;;
46322;SDS011;32044;52.386;13.278;2022-10-23T11:05:16;4.65;;;1.85;;
46322;SDS011;32044;52.386;13.278;2022-10-23T11:07:59;4.80;;;2.00;;
46322;SDS011;32044;52.386;13.278;2022-10-23T11:10:28;6.75;;;2.08;;
46322;SDS011;32044;52.386;13.278;2022-10-23T11:12:53;9.23;;;2.10;;
46322;SDS011;32044;52.386;13.278;2022-10-23T11:15:27;5.40;;;2.08;;
46322;SDS011;32044;52.386;13.278;2022-10-23T11:17:58;4.93;;;1.90;;
46322;SDS011;32044;52.386;13.278;2022-10-23T11:20:30;4.47;;;1.83;;
46322;SDS011;32044;52.386;13.278;2022-10-23T11:23:02;5.60;;;2.25;;
46322;SDS011;32044;52.386;13.278;2022-10-23T11:25:42;6.75;;;1.90;;
46322;SDS011;32044;52.386;13.278;2022-10-23T11:28:35;7.30;;;2.10;;
46322;SDS011;32044;52.386;13.278;2022-10-23T11:33:53;6.47;;;2.20;;
46322;SDS011;32044;52.386;13.278;2022-10-23T11:36:39;7.90;;;1.92;;
46322;SDS011;32044;52.386;13.278;2022-10-23T11:39:13;5.70;;;1.80;;
46322;SDS011;32044;52.386;13.278;2022-10-23T11:41:47;7.88;;;1.83;;
46322;SDS011;32044;52.386;13.278;2022-10-23T11:44:25;12.20;;;1.95;;
46322;SDS011;32044;52.386;13.278;2022-10-23T11:52:36;4.93;;;1.52;;
46322;SDS011;32044;52.386;13.278;2022-10-23T11:55:16;4.85;;;2.05;;
46322;SDS011;32044;52.386;13.278;2022-10-23T11:57:44;7.85;;;1.55;;
46322;SDS011;32044;52.386;13.278;2022-10-23T12:00:23;4.75;;;1.90;;
46322;SDS011;32044;52.386;13.278;2022-10-23T12:02:50;6.18;;;1.67;;
46322;SDS011;32044;52.386;13.278;2022-10-23T12:05:30;6.22;;;2.10;;
46322;SDS011;32044;52.386;13.278;2022-10-23T12:07:59;8.05;;;2.10;;
46322;SDS011;32044;52.386;13.278;2022-10-23T12:10:26;8.02;;;1.95;;
46322;SDS011;32044;52.386;13.278;2022-10-23T12:12:58;4.30;;;1.40;;
46322;SDS011;32044;52.386;13.278;2022-10-23T12:15:26;6.32;;;1.75;;
46322;SDS011;32044;52.386;13.278;2022-10-23T12:17:52;4.80;;;1.50;;
46322;SDS011;32044;52.386;13.278;2022-10-23T12:20:30;4.45;;;1.50;;
46322;SDS011;32044;52.386;13.278;2022-10-23T12:33:52;3.63;;;1.40;;
46322;SDS011;32044;52.386;13.278;2022-10-23T12:39:29;5.53;;;1.90;;
46322;SDS011;32044;52.386;13.278;2022-10-23T12:41:55;4.30;;;1.48;;
46322;SDS011;32044;52.386;13.278;2022-10-23T12:44:22;6.50;;;1.67;;
46322;SDS011;32044;52.386;13.278;2022-10-23T12:46:50;5.13;;;1.45;;
46322;SDS011;32044;52.386;13.278;2022-10-23T12:49:19;6.95;;;1.52;;
46322;SDS011;32044;52.386;13.278;2022-10-23T12:51:57;4.78;;;2.00;;
46322;SDS011;32044;52.386;13.278;2022-10-23T12:54:23;11.50;;;1.98;;
46322;SDS011;32044;52.386;13.278;2022-10-23T12:56:49;7.38;;;1.77;;
46322;SDS011;32044;52.386;13.278;2022-10-23T13:04:59;6.30;;;1.67;;
46322;SDS011;32044;52.386;13.278;2022-10-23T13:07:26;6.88;;;1.67;;
46322;SDS011;32044;52.386;13.278;2022-10-23T13:09:53;3.85;;;1.58;;
46322;SDS011;32044;52.386;13.278;2022-10-23T13:12:26;3.88;;;1.35;;
46322;SDS011;32044;52.386;13.278;2022-10-23T13:14:58;4.93;;;1.75;;
46322;SDS011;32044;52.386;13.278;2022-10-23T13:22:42;4.00;;;1.30;;
46322;SDS011;32044;52.386;13.278;2022-10-23T13:25:25;7.07;;;1.80;;
46322;SDS011;32044;52.386;13.278;2022-10-23T13:30:32;4.18;;;1.60;;
46322;SDS011;32044;52.386;13.278;2022-10-23T13:32:58;8.15;;;2.00;;
46322;SDS011;32044;52.386;13.278;2022-10-23T13:35:24;7.30;;;1.70;;
46322;SDS011;32044;52.386;13.278;2022-10-23T13:37:50;7.13;;;1.92;;
46322;SDS011;32044;52.386;13.278;2022-10-23T13:40:25;3.17;;;1.48;;
46322;SDS011;32044;52.386;13.278;2022-10-23T13:42:52;5.38;;;1.67;;
46322;SDS011;32044;52.386;13.278;2022-10-23T13:45:19;6.60;;;1.40;;
46322;SDS011;32044;52.386;13.278;2022-10-23T13:47:48;5.80;;;1.88;;
46322;SDS011;32044;52.386;13.278;2022-10-23T13:50:14;3.22;;;1.55;;
46322;SDS011;32044;52.386;13.278;2022-10-23T13:52:40;5.25;;;1.88;;
46322;SDS011;32044;52.386;13.278;2022-10-23T13:55:12;4.10;;;2.00;;
46322;SDS011;32044;52.386;13.278;2022-10-23T13:57:42;6.60;;;2.20;;
46322;SDS011;32044;52.386;13.278;2022-10-23T14:00:08;6.47;;;2.05;;
46322;SDS011;32044;52.386;13.278;2022-10-23T14:02:33;8.70;;;1.80;;
46322;SDS011;32044;52.386;13.278;2022-10-23T14:04:59;8.68;;;2.08;;
46322;SDS011;32044;52.386;13.278;2022-10-23T14:07:24;6.03;;;1.70;;
46322;SDS011;32044;52.386;13.278;2022-10-23T14:09:49;7.22;;;2.30;;
46322;SDS011;32044;52.386;13.278;2022-10-23T14:12:15;5.78;;;2.33;;
46322;SDS011;32044;52.386;13.278;2022-10-23T14:14:40;8.93;;;1.80;;
46322;SDS011;32044;52.386;13.278;2022-10-23T14:17:05;4.40;;;1.40;;
46322;SDS011;32044;52.386;13.278;2022-10-23T14:19:32;4.70;;;1.95;;
46322;SDS011;32044;52.386;13.278;2022-10-23T14:21:57;5.10;;;2.20;;
46322;SDS011;32044;52.386;13.278;2022-10-23T14:24:22;6.10;;;2.30;;
46322;SDS011;32044;52.386;13.278;2022-10-23T14:26:48;7.82;;;2.90;;
46322;SDS011;32044;52.386;13.278;2022-10-23T14:29:13;7.70;;;2.42;;
46322;SDS011;32044;52.386;13.278;2022-10-23T14:31:38;6.53;;;2.78;;
46322;SDS011;32044;52.386;13.278;2022-10-23T14:34:03;6.40;;;2.80;;
46322;SDS011;32044;52.386;13.278;2022-10-23T14:36:29;10.02;;;3.33;;
46322;SDS011;32044;52.386;13.278;2022-10-23T14:38:55;6.78;;;2.95;;
46322;SDS011;32044;52.386;13.278;2022-10-23T14:41:21;7.22;;;3.22;;
46322;SDS011;32044;52.386;13.278;2022-10-23T14:43:46;10.32;;;2.95;;
46322;SDS011;32044;52.386;13.278;2022-10-23T14:46:12;6.68;;;3.05;;
46322;SDS011;32044;52.386;13.278;2022-10-23T14:48:40;11.02;;;3.10;;
46322;SDS011;32044;52.386;13.278;2022-10-23T14:51:06;8.48;;;3.38;;
46322;SDS011;32044;52.386;13.278;2022-10-23T14:53:38;9.13;;;3.20;;
46322;SDS011;32044;52.386;13.278;2022-10-23T14:56:03;5.97;;;2.85;;
46322;SDS011;32044;52.386;13.278;2022-10-23T14:58:29;7.47;;;2.83;;
46322;SDS011;32044;52.386;13.278;2022-10-23T15:00:58;10.50;;;3.08;;
46322;SDS011;32044;52.386;13.278;2022-10-23T15:03:24;5.00;;;2.90;;
46322;SDS011;32044;52.386;13.278;2022-10-23T15:05:50;7.35;;;2.95;;
46322;SDS011;32044;52.386;13.278;2022-10-23T15:08:15;6.10;;;2.72;;
46322;SDS011;32044;52.386;13.278;2022-10-23T15:10:40;11.35;;;3.58;;
46322;SDS011;32044;52.386;13.278;2022-10-23T15:13:05;8.45;;;2.75;;
46322;SDS011;32044;52.386;13.278;2022-10-23T15:15:31;13.77;;;3.33;;
46322;SDS011;32044;52.386;13.278;2022-10-23T15:17:56;6.18;;;3.00;;
46322;SDS011;32044;52.386;13.278;2022-10-23T15:20:21;8.02;;;3.10;;
46322;SDS011;32044;52.386;13.278;2022-10-23T15:22:47;16.33;;;3.30;;
46322;SDS011;32044;52.386;13.278;2022-10-23T15:25:12;6.53;;;3.40;;
46322;SDS011;32044;52.386;13.278;2022-10-23T15:27:37;6.90;;;2.60;;
46322;SDS011;32044;52.386;13.278;2022-10-23T15:30:03;6.43;;;3.50;;
46322;SDS011;32044;52.386;13.278;2022-10-23T15:32:28;8.93;;;3.20;;
46322;SDS011;32044;52.386;13.278;2022-10-23T15:34:53;5.82;;;2.95;;
46322;SDS011;32044;52.386;13.278;2022-10-23T15:37:20;8.75;;;3.35;;
46322;SDS011;32044;52.386;13.278;2022-10-23T15:39:45;6.85;;;2.40;;
46322;SDS011;32044;52.386;13.278;2022-10-23T15:42:11;4.47;;;2.90;;